createdAt,value
2018-06-28T00:02:22.278Z,56.23
2018-06-28T00:04:51.987Z,56.70
2018-06-28T00:07:22.378Z,55.99
2018-06-28T00:09:52.303Z,55.84
2018-06-28T00:12:22.152Z,56.33
2018-06-28T00:14:51.854Z,56.56
2018-06-28T00:17:21.664Z,56.93
2018-06-28T00:19:51.395Z,56.02
2018-06-28T00:22:20.998Z,56.05
2018-06-28T00:24:50.714Z,56.24
2018-06-28T00:27:20.535Z,55.86
2018-06-28T00:29:50.612Z,55.90
2018-06-28T00:32:20.059Z,56.23
2018-06-28T00:34:49.827Z,56.26
2018-06-28T00:37:19.758Z,56.77
2018-06-28T00:39:49.145Z,57.45
2018-06-28T00:42:18.476Z,56.76
2018-06-28T00:44:47.872Z,57.41
2018-06-28T00:47:17.281Z,57.13
2018-06-28T00:49:46.623Z,58.28
2018-06-28T00:52:16.094Z,59.02
2018-06-28T00:54:45.432Z,58.18
2018-06-28T00:57:14.808Z,58.13
2018-06-28T00:59:44.157Z,58.38
2018-06-28T01:02:13.631Z,57.69
2018-06-28T01:04:42.953Z,58.00
2018-06-28T01:07:12.303Z,57.53
2018-06-28T01:09:41.612Z,58.79
2018-06-28T01:12:10.957Z,58.20
2018-06-28T01:14:40.605Z,57.63
2018-06-28T01:17:09.888Z,59.67
2018-06-28T01:19:39.210Z,59.52
2018-06-28T01:22:08.523Z,59.42
2018-06-28T01:24:37.833Z,59.65
2018-06-28T01:27:07.130Z,59.94
2018-06-28T01:29:36.456Z,60.54
2018-06-28T01:32:05.836Z,60.55
2018-06-28T01:34:35.133Z,60.47
2018-06-28T01:37:05.046Z,60.62
2018-06-28T01:39:34.347Z,60.60
2018-06-28T01:42:20.650Z,60.87
2018-06-28T01:44:50.150Z,60.72
2018-06-28T01:47:19.528Z,60.46
2018-06-28T01:49:48.863Z,60.06
2018-06-28T01:52:18.202Z,61.67
2018-06-28T01:54:47.556Z,61.01
2018-06-28T01:57:17.044Z,60.77
2018-06-28T01:59:46.391Z,60.60
2018-06-28T02:02:15.808Z,61.33
2018-06-28T02:04:45.153Z,61.47
2018-06-28T02:07:14.468Z,60.74
2018-06-28T02:09:43.735Z,62.30
2018-06-28T02:12:13.071Z,61.59
2018-06-28T02:14:42.371Z,61.30
2018-06-28T02:17:11.699Z,61.08
2018-06-28T02:19:41.272Z,61.67
2018-06-28T02:22:10.611Z,61.64
2018-06-28T02:24:39.978Z,61.70
2018-06-28T02:27:09.315Z,62.29
2018-06-28T02:29:38.627Z,62.31
2018-06-28T02:32:08.002Z,63.21
2018-06-28T02:34:37.320Z,62.57
2018-06-28T02:37:06.688Z,62.80
2018-06-28T02:39:36.024Z,63.85
2018-06-28T02:42:05.519Z,62.48
2018-06-28T02:44:34.831Z,62.94
2018-06-28T02:47:04.187Z,63.93
2018-06-28T02:49:33.554Z,63.19
2018-06-28T02:52:02.956Z,63.74
2018-06-28T02:54:32.254Z,63.06
2018-06-28T02:57:01.598Z,63.09
2018-06-28T02:59:30.891Z,63.70
2018-06-28T03:02:00.182Z,64.18
2018-06-28T03:04:29.714Z,63.73
2018-06-28T03:06:59.019Z,64.21
2018-06-28T03:09:28.424Z,64.56
2018-06-28T03:11:57.767Z,64.90
2018-06-28T03:14:27.081Z,65.06
2018-06-28T03:16:56.372Z,64.47
2018-06-28T03:19:25.712Z,64.56
2018-06-28T03:21:55.027Z,65.19
2018-06-28T03:24:24.333Z,64.80
2018-06-28T03:26:53.991Z,65.27
2018-06-28T03:29:23.276Z,65.19
2018-06-28T03:31:52.582Z,63.99
2018-06-28T03:34:21.936Z,64.76
2018-06-28T03:36:51.242Z,64.68
2018-06-28T03:39:20.575Z,64.95
2018-06-28T03:41:49.936Z,65.06
2018-06-28T03:44:19.232Z,64.65
2018-06-28T03:46:48.544Z,64.95
2018-06-28T03:49:18.280Z,64.54
2018-06-28T03:51:47.544Z,65.62
2018-06-28T03:54:16.821Z,65.79
2018-06-28T03:56:46.077Z,64.50
2018-06-28T03:59:15.520Z,65.75
2018-06-28T04:01:44.818Z,64.57
2018-06-28T04:04:14.097Z,65.04
2018-06-28T04:06:43.468Z,64.92
2018-06-28T04:09:12.858Z,65.06
2018-06-28T04:11:42.427Z,64.64
2018-06-28T04:14:11.811Z,64.76
2018-06-28T04:16:41.122Z,64.60
2018-06-28T04:19:10.192Z,65.30
2018-06-28T04:21:39.527Z,64.42
2018-06-28T04:24:08.567Z,64.97
2018-06-28T04:26:37.856Z,64.85
2018-06-28T04:29:07.142Z,64.57
2018-06-28T04:31:36.457Z,64.78
2018-06-28T04:34:05.836Z,64.99
2018-06-28T04:36:34.858Z,64.35
2018-06-28T04:39:06.246Z,64.01
2018-06-28T04:41:35.515Z,64.16
2018-06-28T04:44:04.906Z,64.89
2018-06-28T04:46:34.180Z,64.82
2018-06-28T04:49:03.416Z,64.75
2018-06-28T04:51:32.701Z,64.55
2018-06-28T04:54:02.046Z,64.27
2018-06-28T04:56:31.884Z,64.19
2018-06-28T04:59:01.179Z,64.27
2018-06-28T05:01:30.477Z,63.68
2018-06-28T05:03:59.856Z,63.34
2018-06-28T05:06:29.175Z,63.60
2018-06-28T05:08:58.459Z,63.75
2018-06-28T05:11:28.067Z,64.14
2018-06-28T05:13:57.391Z,63.39
2018-06-28T05:16:26.695Z,63.04
2018-06-28T05:18:56.141Z,62.84
2018-06-28T05:21:25.493Z,62.53
2018-06-28T05:23:54.846Z,61.91
2018-06-28T05:26:24.198Z,61.66
2018-06-28T05:28:53.486Z,62.33
2018-06-28T05:31:22.802Z,62.04
2018-06-28T05:33:52.137Z,61.77
2018-06-28T05:36:21.469Z,61.74
2018-06-28T05:38:50.824Z,61.17
2018-06-28T05:41:20.387Z,60.34
2018-06-28T05:43:49.743Z,60.16
2018-06-28T05:46:18.817Z,59.73
2018-06-28T05:48:48.223Z,60.19
2018-06-28T05:51:17.588Z,61.11
2018-06-28T05:53:46.888Z,60.04
2018-06-28T05:56:16.180Z,60.72
2018-06-28T05:58:45.582Z,61.79
2018-06-28T06:01:14.960Z,61.04
2018-06-28T06:03:44.550Z,60.80
2018-06-28T06:06:13.843Z,60.20
2018-06-28T06:08:43.146Z,59.94
2018-06-28T06:11:12.488Z,58.72
2018-06-28T06:13:42.237Z,58.30
2018-06-28T06:16:11.587Z,57.25
2018-06-28T06:18:40.916Z,56.98
2018-06-28T06:21:10.245Z,57.39
2018-06-28T06:23:39.584Z,57.00
2018-06-28T06:26:08.967Z,56.96
2018-06-28T06:28:38.324Z,56.73
2018-06-28T06:31:07.670Z,56.57
2018-06-28T06:33:37.098Z,56.51
2018-06-28T06:36:06.690Z,55.32
2018-06-28T06:38:35.995Z,55.80
2018-06-28T06:41:05.348Z,55.41
2018-06-28T06:43:34.727Z,54.81
2018-06-28T06:46:04.074Z,55.87
2018-06-28T06:48:33.783Z,55.36
2018-06-28T06:51:03.084Z,54.95
2018-06-28T06:53:32.475Z,54.64
2018-06-28T06:56:01.895Z,54.78
2018-06-28T06:58:31.289Z,54.16
2018-06-28T07:01:00.594Z,54.40
2018-06-28T07:03:30.091Z,54.23
2018-06-28T07:05:59.413Z,54.16
2018-06-28T07:08:29.024Z,53.11
2018-06-28T07:10:58.723Z,53.53
2018-06-28T07:13:28.100Z,53.81
2018-06-28T07:15:57.696Z,53.33
2018-06-28T07:18:27.087Z,53.64
2018-06-28T07:20:56.415Z,51.75
2018-06-28T07:23:25.743Z,52.11
2018-06-28T07:25:55.060Z,51.73
2018-06-28T07:28:24.517Z,50.62
2018-06-28T07:30:53.988Z,50.44
2018-06-28T07:33:23.383Z,50.83
2018-06-28T07:35:52.822Z,49.85
2018-06-28T07:38:22.287Z,50.84
2018-06-28T07:40:51.651Z,49.81
2018-06-28T07:43:21.210Z,50.29
2018-06-28T07:45:50.640Z,50.45
2018-06-28T07:48:20.108Z,49.63
2018-06-28T07:50:49.521Z,50.00
2018-06-28T07:53:18.807Z,48.68
2018-06-28T07:55:48.299Z,48.48
2018-06-28T07:58:17.678Z,47.59
2018-06-28T08:00:47.103Z,47.69
2018-06-28T08:03:16.551Z,48.26
2018-06-28T08:05:45.872Z,48.67
2018-06-28T08:08:15.289Z,48.21
2018-06-28T08:10:44.704Z,46.89
2018-06-28T08:13:14.134Z,46.32
2018-06-28T08:15:43.567Z,45.01
2018-06-28T08:18:13.379Z,44.84
2018-06-28T08:20:42.735Z,43.61
2018-06-28T08:23:12.090Z,43.92
2018-06-28T08:25:41.488Z,43.91
2018-06-28T08:28:11.019Z,43.52
2018-06-28T08:30:40.387Z,43.37
2018-06-28T08:33:09.782Z,42.53
2018-06-28T08:35:39.069Z,41.73
2018-06-28T08:38:08.406Z,41.26
2018-06-28T08:40:37.883Z,41.81
2018-06-28T08:43:07.361Z,40.65
2018-06-28T08:45:36.688Z,42.03
2018-06-28T08:48:06.207Z,40.25
2018-06-28T08:50:35.549Z,39.88
2018-06-28T08:53:04.941Z,40.88
2018-06-28T08:55:34.398Z,40.64
2018-06-28T08:58:03.927Z,38.68
2018-06-28T09:00:33.515Z,37.98
2018-06-28T09:03:03.071Z,37.06
2018-06-28T09:05:32.473Z,37.09
2018-06-28T09:08:01.833Z,36.83
2018-06-28T09:10:31.152Z,37.80
2018-06-28T09:13:00.464Z,37.84
2018-06-28T09:15:29.835Z,36.64
2018-06-28T09:17:59.258Z,36.43
2018-06-28T09:20:28.633Z,36.30
2018-06-28T09:22:58.096Z,34.46
2018-06-28T09:25:27.518Z,34.59
2018-06-28T09:27:56.840Z,34.45
2018-06-28T09:30:26.250Z,34.50
2018-06-28T09:32:55.582Z,33.87
2018-06-28T09:35:24.984Z,34.11
2018-06-28T09:37:54.415Z,34.23
2018-06-28T09:40:24.101Z,34.83
2018-06-28T09:42:53.570Z,33.34
2018-06-28T09:45:22.855Z,33.23
2018-06-28T09:47:52.570Z,32.90
2018-06-28T09:50:21.920Z,33.45
2018-06-28T09:52:51.327Z,33.54
2018-06-28T09:55:20.681Z,32.00
2018-06-28T09:57:50.081Z,32.96
2018-06-28T10:00:54.995Z,32.25
2018-06-28T10:03:24.374Z,32.99
2018-06-28T10:05:53.542Z,32.74
2018-06-28T10:08:23.222Z,31.62
2018-06-28T10:10:52.522Z,31.60
2018-06-28T10:13:21.983Z,32.14
2018-06-28T10:15:51.331Z,30.42
2018-06-28T10:18:20.685Z,30.77
2018-06-28T10:20:50.038Z,30.66
2018-06-28T10:23:19.366Z,30.05
2018-06-28T10:25:48.692Z,30.02
2018-06-28T10:28:18.066Z,28.85
2018-06-28T10:30:47.707Z,30.15
2018-06-28T10:33:16.869Z,30.25
2018-06-28T10:35:46.171Z,30.45
2018-06-28T10:38:15.670Z,31.73
2018-06-28T10:40:45.012Z,31.09
2018-06-28T10:43:14.361Z,30.82
2018-06-28T10:45:43.679Z,30.53
2018-06-28T10:48:13.025Z,29.37
2018-06-28T10:50:42.437Z,29.81
2018-06-28T10:53:12.379Z,29.46
2018-06-28T10:55:41.767Z,29.99
2018-06-28T10:58:11.095Z,30.21
2018-06-28T11:00:40.526Z,30.37
2018-06-28T11:03:09.835Z,29.52
2018-06-28T11:05:39.189Z,29.45
2018-06-28T11:08:08.568Z,29.18
2018-06-28T11:10:38.039Z,29.33
2018-06-28T11:13:07.358Z,30.32
2018-06-28T11:15:36.931Z,29.81
2018-06-28T11:18:06.359Z,29.69
2018-06-28T11:20:35.667Z,29.57
2018-06-28T11:23:05.062Z,28.69
2018-06-28T11:25:34.350Z,29.77
2018-06-28T11:28:03.667Z,29.33
2018-06-28T11:30:33.030Z,28.59
2018-06-28T11:33:02.404Z,28.17
2018-06-28T11:35:31.800Z,27.95
2018-06-28T11:38:01.310Z,26.80
2018-06-28T11:40:30.714Z,26.68
2018-06-28T11:43:00.096Z,26.49
2018-06-28T11:45:29.477Z,27.03
2018-06-28T11:47:58.983Z,28.32
2018-06-28T11:50:28.387Z,27.93
2018-06-28T11:52:57.810Z,26.78
2018-06-28T11:55:27.450Z,28.08
2018-06-28T11:57:56.817Z,26.45
2018-06-28T12:00:26.367Z,27.93
2018-06-28T12:02:55.656Z,27.86
2018-06-28T12:05:25.037Z,28.21
2018-06-28T12:07:54.397Z,27.55
2018-06-28T12:10:23.753Z,28.68
2018-06-28T12:12:53.163Z,27.50
2018-06-28T12:15:22.267Z,28.04
2018-06-28T12:17:51.627Z,28.12
2018-06-28T12:20:20.954Z,28.25
2018-06-28T12:22:50.505Z,27.56
2018-06-28T12:25:19.826Z,26.95
2018-06-28T12:27:49.127Z,26.72
2018-06-28T12:30:18.463Z,26.46
2018-06-28T12:32:47.978Z,27.42
2018-06-28T12:35:17.438Z,27.49
2018-06-28T12:37:46.814Z,27.54
2018-06-28T12:40:16.106Z,27.95
2018-06-28T12:42:45.412Z,26.35
2018-06-28T12:45:16.819Z,27.18
2018-06-28T12:48:11.108Z,27.25
2018-06-28T12:50:40.462Z,25.70
2018-06-28T12:53:10.942Z,26.94
2018-06-28T12:56:24.849Z,26.10
2018-06-28T12:58:55.227Z,26.95
2018-06-28T13:01:25.663Z,25.53
2018-06-28T13:03:55.356Z,25.72
2018-06-28T13:06:24.641Z,26.26
2018-06-28T13:08:55.007Z,25.78
2018-06-28T13:11:24.706Z,26.02
2018-06-28T13:13:54.339Z,25.15
2018-06-28T13:16:25.202Z,25.22
2018-06-28T13:18:54.639Z,26.43
2018-06-28T13:21:23.986Z,25.63
2018-06-28T13:23:54.296Z,25.62
2018-06-28T13:26:23.760Z,25.72
2018-06-28T13:28:53.162Z,25.21
2018-06-28T13:31:22.635Z,25.25
2018-06-28T13:33:51.939Z,25.66
2018-06-28T13:36:21.275Z,25.54
2018-06-28T13:38:50.802Z,26.10
2018-06-28T13:41:20.273Z,25.53
2018-06-28T13:43:49.677Z,24.86
2018-06-28T13:46:19.845Z,25.11
2018-06-28T13:48:49.169Z,25.27
2018-06-28T13:51:18.451Z,24.55
2018-06-28T13:53:47.808Z,25.13
2018-06-28T13:56:17.158Z,25.68
2018-06-28T13:58:46.546Z,24.90
2018-06-28T14:01:15.956Z,25.31
2018-06-28T14:03:45.270Z,25.84
2018-06-28T14:06:14.620Z,24.61
2018-06-28T14:08:44.470Z,25.22
2018-06-28T14:11:13.857Z,24.06
2018-06-28T14:13:43.215Z,24.67
2018-06-28T14:16:12.576Z,24.90
2018-06-28T14:18:41.930Z,23.98
2018-06-28T14:21:11.321Z,23.72
2018-06-28T14:23:40.647Z,23.84
2018-06-28T14:26:09.962Z,23.31
2018-06-28T14:28:39.259Z,23.74
2018-06-28T14:31:08.729Z,23.26
2018-06-28T14:33:38.058Z,24.20
2018-06-28T14:36:07.319Z,23.34
2018-06-28T14:38:36.748Z,25.08
2018-06-28T14:41:06.351Z,24.69
2018-06-28T14:43:35.717Z,24.60
2018-06-28T14:46:05.339Z,24.94
2018-06-28T14:48:35.291Z,24.96
2018-06-28T14:51:04.786Z,24.55
2018-06-28T14:53:34.566Z,25.08
2018-06-28T14:56:04.084Z,25.11
2018-06-28T14:58:33.568Z,25.87
2018-06-28T15:01:02.959Z,24.99
2018-06-28T15:03:32.331Z,25.10
2018-06-28T15:06:01.678Z,25.08
2018-06-28T15:08:31.135Z,26.09
2018-06-28T15:11:00.459Z,25.68
2018-06-28T15:13:29.751Z,25.95
2018-06-28T15:15:59.690Z,26.02
2018-06-28T15:18:29.116Z,26.58
2018-06-28T15:20:58.410Z,26.00
2018-06-28T15:23:27.534Z,25.57
2018-06-28T15:25:56.900Z,26.57
2018-06-28T15:28:26.294Z,26.43
2018-06-28T15:30:55.984Z,27.04
2018-06-28T15:33:25.391Z,26.03
2018-06-28T15:35:54.707Z,26.75
2018-06-28T15:38:24.190Z,25.90
2018-06-28T15:40:53.604Z,26.18
2018-06-28T15:43:22.911Z,26.54
2018-06-28T15:45:52.359Z,27.09
2018-06-28T15:48:21.707Z,27.17
2018-06-28T15:50:51.010Z,27.01
2018-06-28T15:53:20.386Z,27.68
2018-06-28T15:55:49.683Z,27.11
2018-06-28T15:58:19.052Z,26.75
2018-06-28T16:00:48.769Z,27.59
2018-06-28T16:03:18.088Z,26.96
2018-06-28T16:05:47.443Z,27.46
2018-06-28T16:08:16.814Z,27.99
2018-06-28T16:10:46.304Z,27.70
2018-06-28T16:13:15.643Z,27.48
2018-06-28T16:15:45.024Z,27.02
2018-06-28T16:18:14.367Z,27.94
2018-06-28T16:20:43.755Z,27.11
2018-06-28T16:23:13.528Z,26.60
2018-06-28T16:25:42.905Z,26.53
2018-06-28T16:28:12.206Z,26.47
2018-06-28T16:30:41.672Z,27.28
2018-06-28T16:33:10.944Z,26.52
2018-06-28T16:35:40.312Z,26.84
2018-06-28T16:38:09.708Z,26.16
2018-06-28T16:40:39.061Z,26.20
2018-06-28T16:43:08.430Z,26.40
2018-06-28T16:45:38.151Z,26.12
2018-06-28T16:48:07.504Z,25.90
2018-06-28T16:50:36.831Z,26.47
2018-06-28T16:53:06.182Z,26.30
2018-06-28T16:55:35.551Z,27.15
2018-06-28T16:58:04.875Z,26.12
2018-06-28T17:00:34.232Z,26.84
2018-06-28T17:03:03.555Z,26.69
2018-06-28T17:05:32.906Z,26.23
2018-06-28T17:08:02.651Z,27.15
2018-06-28T17:10:31.913Z,27.14
2018-06-28T17:13:01.462Z,27.44
2018-06-28T17:15:30.858Z,26.82
2018-06-28T17:18:00.219Z,26.34
2018-06-28T17:20:29.657Z,27.04
2018-06-28T17:22:59.274Z,27.13
2018-06-28T17:25:28.615Z,26.58
2018-06-28T17:27:58.098Z,26.34
2018-06-28T17:30:27.841Z,26.95
2018-06-28T17:32:57.398Z,26.25
2018-06-28T17:35:26.698Z,27.04
2018-06-28T17:37:56.107Z,27.19
2018-06-28T17:40:25.557Z,26.56
2018-06-28T17:42:55.020Z,26.53
2018-06-28T17:45:24.357Z,26.65
2018-06-28T17:47:53.739Z,25.73
2018-06-28T17:50:23.143Z,25.54
2018-06-28T17:52:53.291Z,26.67
2018-06-28T17:55:22.854Z,26.00
2018-06-28T17:57:52.384Z,26.01
2018-06-28T18:00:21.914Z,26.52
2018-06-28T18:02:51.290Z,27.06
2018-06-28T18:05:20.648Z,26.66
2018-06-28T18:07:50.034Z,27.02
2018-06-28T18:10:19.437Z,26.63
2018-06-28T18:12:48.869Z,27.43
2018-06-28T18:15:18.438Z,27.92
2018-06-28T18:17:48.015Z,26.96
2018-06-28T18:20:17.317Z,27.06
2018-06-28T18:22:46.656Z,27.39
2018-06-28T18:25:16.380Z,27.48
2018-06-28T18:27:45.918Z,28.59
2018-06-28T18:30:15.322Z,28.00
2018-06-28T18:32:44.738Z,28.06
2018-06-28T18:35:14.123Z,28.77
2018-06-28T18:37:43.638Z,28.69
2018-06-28T18:40:13.099Z,28.82
2018-06-28T18:42:42.461Z,29.17
2018-06-28T18:45:11.922Z,29.60
2018-06-28T18:47:41.272Z,29.02
2018-06-28T18:50:10.755Z,29.88
2018-06-28T18:52:40.216Z,29.17
2018-06-28T18:55:09.567Z,29.42
2018-06-28T18:57:39.010Z,29.75
2018-06-28T19:00:08.588Z,29.63
2018-06-28T19:02:37.942Z,30.07
2018-06-28T19:05:07.380Z,29.55
2018-06-28T19:07:36.777Z,29.68
2018-06-28T19:10:11.485Z,30.44
2018-06-28T19:12:40.922Z,30.94
2018-06-28T19:15:15.560Z,30.57
2018-06-28T19:17:45.422Z,31.58
2018-06-28T19:20:14.784Z,31.29
2018-06-28T19:22:49.405Z,31.60
2018-06-28T19:25:18.810Z,31.27
2018-06-28T19:27:48.187Z,31.54
2018-06-28T19:30:22.841Z,31.93
2018-06-28T19:32:52.193Z,32.21
2018-06-28T19:35:21.705Z,32.04
2018-06-28T19:37:52.037Z,32.94
2018-06-28T19:40:26.851Z,33.66
2018-06-28T19:42:58.731Z,33.66
2018-06-28T19:45:28.172Z,33.13
2018-06-28T19:47:57.516Z,34.04
2018-06-28T19:50:32.058Z,33.52
2018-06-28T19:53:11.796Z,34.08
2018-06-28T19:55:41.273Z,34.06
2018-06-28T19:58:10.705Z,34.83
2018-06-28T20:00:45.406Z,34.39
2018-06-28T20:03:19.996Z,35.17
2018-06-28T20:05:49.422Z,34.94
2018-06-28T20:08:18.899Z,35.84
2018-06-28T20:10:48.304Z,36.34
2018-06-28T20:13:23.162Z,36.22
2018-06-28T20:15:58.301Z,36.41
2018-06-28T20:18:33.609Z,37.79
2018-06-28T20:21:03.592Z,37.32
2018-06-28T20:23:32.940Z,38.41
2018-06-28T20:26:07.650Z,38.45
2018-06-28T20:28:42.098Z,38.96
2018-06-28T20:31:17.128Z,39.57
2018-06-28T20:33:51.780Z,40.30
2018-06-28T20:36:21.230Z,40.51
2018-06-28T20:38:50.647Z,39.83
2018-06-28T20:41:21.035Z,41.27
2018-06-28T20:43:51.239Z,40.10
2018-06-28T20:46:20.633Z,40.80
2018-06-28T20:48:50.005Z,40.60
2018-06-28T20:51:19.510Z,41.64
2018-06-28T20:53:48.906Z,42.10
2018-06-28T20:56:18.386Z,42.21
2018-06-28T20:58:47.779Z,42.21
2018-06-28T21:01:17.350Z,43.26
2018-06-28T21:03:46.763Z,43.58
2018-06-28T21:06:16.176Z,42.93
2018-06-28T21:08:45.537Z,42.69
2018-06-28T21:11:14.859Z,43.18
2018-06-28T21:13:44.376Z,43.59
2018-06-28T21:16:13.715Z,44.23
2018-06-28T21:18:43.557Z,44.73
2018-06-28T21:21:13.173Z,44.76
2018-06-28T21:23:42.571Z,44.57
2018-06-28T21:26:11.926Z,44.60
2018-06-28T21:28:41.330Z,45.47
2018-06-28T21:31:10.665Z,45.75
2018-06-28T21:33:40.416Z,45.21
2018-06-28T21:36:10.069Z,46.22
2018-06-28T21:38:39.420Z,46.54
2018-06-28T21:41:08.784Z,46.09
2018-06-28T21:43:38.153Z,47.49
2018-06-28T21:46:07.471Z,47.03
2018-06-28T21:48:36.967Z,47.51
2018-06-28T21:51:06.450Z,47.38
2018-06-28T21:53:35.877Z,47.54
2018-06-28T21:56:05.217Z,47.67
2018-06-28T21:58:34.654Z,47.83
2018-06-28T22:01:03.997Z,48.54
2018-06-28T22:03:33.319Z,48.71
2018-06-28T22:06:02.792Z,49.41
2018-06-28T22:08:32.119Z,49.86
2018-06-28T22:11:01.666Z,49.13
2018-06-28T22:13:31.048Z,49.57
2018-06-28T22:16:00.417Z,50.03
2018-06-28T22:18:29.722Z,50.05
2018-06-28T22:20:59.423Z,50.20
2018-06-28T22:23:28.769Z,50.89
2018-06-28T22:25:58.162Z,50.28
2018-06-28T22:28:27.594Z,51.29
2018-06-28T22:30:56.912Z,51.55
2018-06-28T22:33:26.293Z,50.82
2018-06-28T22:35:55.639Z,50.93
2018-06-28T22:38:25.000Z,51.65
2018-06-28T22:40:54.386Z,51.22
2018-06-28T22:43:23.956Z,51.67
2018-06-28T22:45:53.233Z,51.80
2018-06-28T22:48:22.556Z,52.38
2018-06-28T22:50:51.931Z,52.45
2018-06-28T22:53:21.224Z,52.62
2018-06-28T22:55:50.864Z,53.15
2018-06-28T22:58:20.205Z,53.16
2018-06-28T23:00:49.535Z,53.38
2018-06-28T23:03:18.836Z,53.31
2018-06-28T23:05:48.338Z,53.56
2018-06-28T23:08:17.703Z,54.71
2018-06-28T23:10:47.111Z,53.99
2018-06-28T23:13:16.503Z,54.56
2018-06-28T23:15:45.850Z,54.13
2018-06-28T23:18:15.302Z,54.26
2018-06-28T23:20:44.638Z,54.39
2018-06-28T23:23:13.932Z,53.99
2018-06-28T23:25:43.352Z,54.76
2018-06-28T23:28:12.984Z,54.39
2018-06-28T23:30:42.370Z,54.95
2018-06-28T23:33:11.669Z,55.58
2018-06-28T23:35:41.204Z,55.79
2018-06-28T23:38:10.669Z,54.94
2018-06-28T23:40:40.048Z,56.78
2018-06-28T23:43:09.456Z,55.89
2018-06-28T23:45:39.053Z,56.69
2018-06-28T23:48:08.460Z,57.11
2018-06-28T23:50:37.926Z,57.13
2018-06-28T23:53:07.677Z,57.05
2018-06-28T23:55:37.335Z,57.61
2018-06-28T23:58:06.838Z,57.03
